createdAt,value
2018-12-13T00:00:36.756Z,101445.41
2018-12-13T00:03:04.299Z,101448.88
2018-12-13T00:05:31.973Z,101438.33
2018-12-13T00:07:59.549Z,101437.91
2018-12-13T00:10:27.031Z,101442.27
2018-12-13T00:12:54.516Z,101430.34
2018-12-13T00:15:23.634Z,101438.73
2018-12-13T00:17:51.106Z,101434.83
2018-12-13T00:20:18.614Z,101432.22
2018-12-13T00:22:46.110Z,101426.75
2018-12-13T00:25:13.568Z,101428.48
2018-12-13T00:27:41.729Z,101430.34
2018-12-13T00:30:09.521Z,101429.78
2018-12-13T00:32:37.054Z,101430.05
2018-12-13T00:35:04.645Z,101435.16
2018-12-13T00:37:32.784Z,101436.42
2018-12-13T00:40:00.267Z,101435.66
2018-12-13T00:42:28.947Z,101437.42
2018-12-13T00:44:56.406Z,101433.28
2018-12-13T00:47:23.916Z,101435.69
2018-12-13T00:49:51.547Z,101440.20
2018-12-13T00:52:19.001Z,101437.86
2018-12-13T00:54:46.471Z,101436.25
2018-12-13T00:57:13.942Z,101439.74
2018-12-13T00:59:41.417Z,101440.50
2018-12-13T01:02:09.369Z,101435.80
2018-12-13T01:04:36.836Z,101433.69
2018-12-13T01:07:04.355Z,101436.77
2018-12-13T01:09:31.832Z,101428.38
2018-12-13T01:11:59.797Z,101429.28
2018-12-13T01:14:27.257Z,101426.90
2018-12-13T01:16:54.708Z,101416.66
2018-12-13T01:19:22.171Z,101429.02
2018-12-13T01:21:49.642Z,101426.90
2018-12-13T01:24:17.117Z,101429.22
2018-12-13T01:26:44.589Z,101425.41
2018-12-13T01:29:12.072Z,101428.72
2018-12-13T01:31:39.536Z,101424.37
2018-12-13T01:34:06.995Z,101429.06
2018-12-13T01:36:34.437Z,101421.84
2018-12-13T01:39:01.893Z,101420.17
2018-12-13T01:41:29.403Z,101414.95
2018-12-13T01:43:56.888Z,101419.64
2018-12-13T01:46:24.380Z,101412.06
2018-12-13T01:48:52.168Z,101409.01
2018-12-13T01:51:19.630Z,101404.66
2018-12-13T01:53:47.162Z,101408.86
2018-12-13T01:56:14.660Z,101407.59
2018-12-13T01:58:42.148Z,101406.33
2018-12-13T02:01:09.620Z,101411.16
2018-12-13T02:03:37.088Z,101410.31
2018-12-13T02:06:04.618Z,101403.16
2018-12-13T02:08:32.094Z,101397.20
2018-12-13T02:10:59.569Z,101406.37
2018-12-13T02:13:27.042Z,101404.48
2018-12-13T02:15:54.509Z,101398.53
2018-12-13T02:18:22.113Z,101398.02
2018-12-13T02:20:50.165Z,101400.45
2018-12-13T02:23:17.644Z,101389.55
2018-12-13T02:25:45.219Z,101392.06
2018-12-13T02:28:12.758Z,101391.62
2018-12-13T02:30:41.103Z,101397.23
2018-12-13T02:33:08.602Z,101394.24
2018-12-13T02:35:36.076Z,101386.23
2018-12-13T02:38:03.595Z,101388.00
2018-12-13T02:40:31.160Z,101384.15
2018-12-13T02:42:58.618Z,101381.03
2018-12-13T02:45:27.111Z,101386.86
2018-12-13T02:47:54.593Z,101383.02
2018-12-13T02:50:22.100Z,101385.55
2018-12-13T02:52:49.575Z,101382.10
2018-12-13T02:55:17.582Z,101383.27
2018-12-13T02:57:45.077Z,101379.49
2018-12-13T03:00:13.049Z,101380.97
2018-12-13T03:02:40.556Z,101371.10
2018-12-13T03:05:08.737Z,101368.70
2018-12-13T03:07:36.199Z,101365.14
2018-12-13T03:10:05.051Z,101367.22
2018-12-13T03:12:32.908Z,101373.19
2018-12-13T03:15:00.353Z,101361.48
2018-12-13T03:17:27.811Z,101363.88
2018-12-13T03:19:55.277Z,101365.61
2018-12-13T03:22:22.746Z,101378.67
2018-12-13T03:24:50.212Z,101380.34
2018-12-13T03:27:17.698Z,101373.19
2018-12-13T03:29:45.535Z,101379.58
2018-12-13T03:32:13.013Z,101373.27
2018-12-13T03:34:40.632Z,101376.21
2018-12-13T03:37:08.092Z,101374.16
2018-12-13T03:39:35.571Z,101368.55
2018-12-13T03:42:03.133Z,101370.66
2018-12-13T03:44:30.604Z,101363.85
2018-12-13T03:46:58.082Z,101368.98
2018-12-13T03:49:25.575Z,101363.85
2018-12-13T03:51:53.051Z,101360.23
2018-12-13T03:54:20.523Z,101359.41
2018-12-13T03:56:47.983Z,101359.47
2018-12-13T03:59:16.056Z,101355.68
2018-12-13T04:01:43.560Z,101352.88
2018-12-13T04:04:11.028Z,101343.13
2018-12-13T04:06:38.488Z,101340.13
2018-12-13T04:09:07.203Z,101342.31
2018-12-13T04:11:34.676Z,101335.09
2018-12-13T04:14:02.456Z,101335.91
2018-12-13T04:16:29.924Z,101341.39
2018-12-13T04:18:57.372Z,101337.67
2018-12-13T04:21:24.846Z,101339.00
2018-12-13T04:23:52.344Z,101339.09
2018-12-13T04:26:19.796Z,101339.09
2018-12-13T04:28:47.270Z,101335.42
2018-12-13T04:31:14.813Z,101328.30
2018-12-13T04:33:42.291Z,101331.17
2018-12-13T04:36:09.777Z,101326.94
2018-12-13T04:38:37.237Z,101327.38
2018-12-13T04:41:05.132Z,101330.03
2018-12-13T04:43:32.607Z,101327.51
2018-12-13T04:46:00.310Z,101324.09
2018-12-13T04:48:27.814Z,101324.63
2018-12-13T04:50:55.295Z,101326.33
2018-12-13T04:53:22.779Z,101325.42
2018-12-13T04:55:50.255Z,101328.80
2018-12-13T04:58:17.743Z,101329.33
2018-12-13T05:00:45.680Z,101325.13
2018-12-13T05:03:13.147Z,101318.35
2018-12-13T05:05:40.633Z,101312.60
2018-12-13T05:08:08.173Z,101307.91
2018-12-13T05:10:52.310Z,101305.80
2018-12-13T05:13:19.898Z,101304.53
2018-12-13T05:15:47.422Z,101311.55
2018-12-13T05:18:14.943Z,101304.83
2018-12-13T05:20:42.449Z,101303.19
2018-12-13T05:23:09.950Z,101302.01
2018-12-13T05:25:37.410Z,101309.02
2018-12-13T05:28:04.889Z,101302.42
2018-12-13T05:30:32.414Z,101303.27
2018-12-13T05:33:00.019Z,101301.45
2018-12-13T05:35:27.500Z,101295.41
2018-12-13T05:37:54.956Z,101295.64
2018-12-13T05:40:22.416Z,101301.45
2018-12-13T05:42:49.956Z,101298.16
2018-12-13T05:45:17.528Z,101301.72
2018-12-13T05:47:45.083Z,101294.37
2018-12-13T05:50:12.647Z,101295.44
2018-12-13T05:52:40.120Z,101290.24
2018-12-13T05:55:08.581Z,101286.66
2018-12-13T06:00:17.971Z,101290.16
2018-12-13T06:02:45.509Z,101284.64
2018-12-13T06:05:12.951Z,101275.23
2018-12-13T06:07:40.502Z,101283.38
2018-12-13T06:10:08.046Z,101280.50
2018-12-13T06:12:35.534Z,101286.02
2018-12-13T06:15:03.052Z,101277.84
2018-12-13T06:17:30.523Z,101279.24
2018-12-13T06:19:58.000Z,101280.50
2018-12-13T06:22:25.970Z,101277.60
2018-12-13T06:24:53.426Z,101283.52
2018-12-13T06:27:21.697Z,101284.08
2018-12-13T06:29:49.170Z,101284.08
2018-12-13T06:32:16.753Z,101289.19
2018-12-13T06:34:44.229Z,101283.84
2018-12-13T06:37:11.705Z,101281.27
2018-12-13T06:39:39.168Z,101276.22
2018-12-13T06:42:06.691Z,101272.02
2018-12-13T06:44:34.159Z,101275.95
2018-12-13T06:47:01.651Z,101275.02
2018-12-13T06:49:29.196Z,101275.45
2018-12-13T06:51:56.662Z,101272.69
2018-12-13T06:54:24.169Z,101272.16
2018-12-13T06:56:52.088Z,101272.57
2018-12-13T06:59:19.566Z,101272.13
2018-12-13T07:01:47.076Z,101273.83
2018-12-13T07:04:14.533Z,101281.05
2018-12-13T07:06:42.031Z,101275.56
2018-12-13T07:09:09.488Z,101275.21
2018-12-13T07:11:37.013Z,101280.61
2018-12-13T07:14:04.496Z,101275.56
2018-12-13T07:16:32.179Z,101282.31
2018-12-13T07:18:59.679Z,101283.58
2018-12-13T07:21:27.133Z,101276.91
2018-12-13T07:23:54.626Z,101281.05
2018-12-13T07:26:22.132Z,101277.73
2018-12-13T07:28:49.634Z,101275.65
2018-12-13T07:31:17.109Z,101268.91
2018-12-13T07:33:44.584Z,101274.86
2018-12-13T07:36:12.860Z,101271.92
2018-12-13T07:38:40.343Z,101268.98
2018-12-13T07:41:07.877Z,101277.37
2018-12-13T07:43:35.414Z,101269.48
2018-12-13T07:46:02.862Z,101265.31
2018-12-13T07:48:30.321Z,101272.06
2018-12-13T07:50:58.087Z,101264.13
2018-12-13T07:53:25.558Z,101270.88
2018-12-13T07:55:53.005Z,101269.23
2018-12-13T07:58:20.480Z,101269.62
2018-12-13T08:00:48.112Z,101260.05
2018-12-13T08:03:15.601Z,101267.20
2018-12-13T08:05:43.110Z,101264.74
2018-12-13T08:08:10.628Z,101267.41
2018-12-13T08:10:38.130Z,101269.02
2018-12-13T08:13:05.690Z,101264.52
2018-12-13T08:15:33.157Z,101259.72
2018-12-13T08:18:00.664Z,101261.50
2018-12-13T08:20:28.151Z,101259.77
2018-12-13T08:22:55.616Z,101253.23
2018-12-13T08:25:23.259Z,101259.91
2018-12-13T08:27:50.740Z,101253.23
2018-12-13T08:30:18.209Z,101259.00
2018-12-13T08:32:45.718Z,101259.47
2018-12-13T08:35:13.222Z,101264.69
2018-12-13T08:37:40.685Z,101267.09
2018-12-13T08:40:08.329Z,101262.52
2018-12-13T08:42:35.820Z,101270.99
2018-12-13T08:45:03.468Z,101269.73
2018-12-13T08:47:30.930Z,101274.84
2018-12-13T08:49:58.432Z,101272.70
2018-12-13T08:52:25.912Z,101269.79
2018-12-13T08:54:53.383Z,101273.36
2018-12-13T08:57:20.853Z,101279.97
2018-12-13T08:59:48.337Z,101276.59
2018-12-13T09:02:15.817Z,101275.83
2018-12-13T09:04:43.308Z,101283.34
2018-12-13T09:07:10.816Z,101282.63
2018-12-13T09:09:38.303Z,101274.16
2018-12-13T09:12:05.795Z,101278.41
2018-12-13T09:14:33.254Z,101279.34
2018-12-13T09:17:00.716Z,101277.72
2018-12-13T09:19:28.160Z,101286.06
2018-12-13T09:21:55.622Z,101272.09
2018-12-13T09:24:23.081Z,101283.95
2018-12-13T09:26:51.561Z,101286.97
2018-12-13T09:29:19.051Z,101285.82
2018-12-13T09:31:46.499Z,101284.58
2018-12-13T09:34:13.965Z,101285.43
2018-12-13T09:36:41.427Z,101285.43
2018-12-13T09:39:08.884Z,101285.91
2018-12-13T09:41:36.951Z,101284.23
2018-12-13T09:44:04.420Z,101285.55
2018-12-13T09:46:32.543Z,101270.83
2018-12-13T09:48:59.996Z,101276.76
2018-12-13T09:51:27.461Z,101276.42
2018-12-13T09:53:54.996Z,101276.53
2018-12-13T09:56:22.493Z,101263.36
2018-12-13T09:58:49.952Z,101264.22
2018-12-13T10:01:18.073Z,101262.10
2018-12-13T10:03:45.543Z,101264.88
2018-12-13T10:06:12.985Z,101260.17
2018-12-13T10:08:46.157Z,101247.12
2018-12-13T10:11:09.937Z,101260.65
2018-12-13T10:13:37.395Z,101247.94
2018-12-13T10:16:04.872Z,101250.08
2018-12-13T10:18:32.325Z,101239.11
2018-12-13T10:20:59.769Z,101243.27
2018-12-13T10:23:27.241Z,101245.86
2018-12-13T10:25:59.525Z,101237.07
2018-12-13T10:28:24.191Z,101236.24
2018-12-13T10:30:51.651Z,101232.52
2018-12-13T10:33:19.111Z,101238.36
2018-12-13T10:35:46.592Z,101239.62
2018-12-13T10:38:14.161Z,101238.72
2018-12-13T10:40:41.652Z,101228.37
2018-12-13T10:43:09.132Z,101232.23
2018-12-13T10:45:36.589Z,101228.78
2018-12-13T10:48:04.073Z,101231.44
2018-12-13T10:50:31.648Z,101228.86
2018-12-13T10:52:59.109Z,101233.13
2018-12-13T10:55:26.623Z,101228.91
2018-12-13T10:57:54.101Z,101225.66
2018-12-13T11:00:27.187Z,101218.98
2018-12-13T11:03:08.335Z,101216.48
2018-12-13T11:05:35.823Z,101215.41
2018-12-13T11:08:03.312Z,101209.06
2018-12-13T11:10:30.788Z,101212.09
2018-12-13T11:12:58.250Z,101214.62
2018-12-13T11:15:25.715Z,101211.38
2018-12-13T11:17:53.796Z,101216.17
2018-12-13T11:20:21.253Z,101209.13
2018-12-13T11:22:48.735Z,101209.98
2018-12-13T11:25:16.250Z,101212.20
2018-12-13T11:28:09.170Z,101207.22
2018-12-13T11:30:36.624Z,101204.73
2018-12-13T11:33:04.167Z,101206.07
2018-12-13T11:35:31.635Z,101203.35
2018-12-13T11:37:59.209Z,101205.29
2018-12-13T11:40:26.734Z,101204.45
2018-12-13T11:42:54.203Z,101197.64
2018-12-13T11:45:21.769Z,101212.14
2018-12-13T11:47:49.227Z,101209.25
2018-12-13T11:50:16.768Z,101211.91
2018-12-13T11:52:44.212Z,101201.95
2018-12-13T11:55:39.493Z,101205.20
2018-12-13T11:58:07.010Z,101197.86
2018-12-13T12:00:34.509Z,101202.30
2018-12-13T12:03:01.975Z,101196.73
2018-12-13T12:05:29.495Z,101196.00
2018-12-13T12:07:57.012Z,101201.58
2018-12-13T12:10:24.557Z,101194.72
2018-12-13T12:12:52.045Z,101194.19
2018-12-13T12:15:19.521Z,101198.95
2018-12-13T12:17:46.997Z,101196.00
2018-12-13T12:20:14.581Z,101199.27
2018-12-13T12:22:42.067Z,101200.51
2018-12-13T12:25:09.514Z,101192.87
2018-12-13T12:27:36.988Z,101192.94
2018-12-13T12:30:05.612Z,101191.41
2018-12-13T12:32:33.082Z,101193.11
2018-12-13T12:35:00.533Z,101192.99
2018-12-13T12:37:28.053Z,101194.79
2018-12-13T12:39:55.645Z,101193.69
2018-12-13T12:42:23.109Z,101193.09
2018-12-13T12:44:50.647Z,101188.83
2018-12-13T12:47:18.191Z,101188.77
2018-12-13T12:52:19.602Z,101182.19
2018-12-13T12:54:47.420Z,101180.12
2018-12-13T12:57:14.899Z,101176.74
2018-12-13T12:59:42.435Z,101160.14
2018-12-13T13:02:09.876Z,101175.43
2018-12-13T13:04:37.332Z,101171.22
2018-12-13T13:07:04.875Z,101167.84
2018-12-13T13:09:32.337Z,101164.84
2018-12-13T13:11:59.817Z,101167.36
2018-12-13T13:14:27.274Z,101161.53
2018-12-13T13:16:54.729Z,101165.73
2018-12-13T13:19:22.205Z,101160.27
2018-12-13T13:21:49.689Z,101160.06
2018-12-13T13:24:17.151Z,101156.64
2018-12-13T13:26:44.658Z,101160.50
2018-12-13T13:29:12.097Z,101155.63
2018-12-13T13:31:39.677Z,101150.94
2018-12-13T13:34:07.162Z,101152.27
2018-12-13T13:36:34.642Z,101148.41
2018-12-13T13:39:02.106Z,101150.52
2018-12-13T13:41:29.574Z,101147.14
2018-12-13T13:43:57.039Z,101151.78
2018-12-13T13:46:24.484Z,101153.71
2018-12-13T13:48:51.947Z,101158.00
2018-12-13T13:51:19.512Z,101167.27
2018-12-13T13:53:46.986Z,101162.31
2018-12-13T13:56:14.455Z,101156.11
2018-12-13T13:58:41.967Z,101158.91
2018-12-13T14:01:09.426Z,101154.67
2018-12-13T14:03:36.926Z,101151.25
2018-12-13T14:06:04.398Z,101154.67
2018-12-13T14:08:31.875Z,101153.34
2018-12-13T14:10:59.455Z,101154.75
2018-12-13T14:13:27.126Z,101153.05
2018-12-13T14:15:54.597Z,101145.25
2018-12-13T14:18:22.057Z,101150.42
2018-12-13T14:20:49.552Z,101154.08
2018-12-13T14:23:17.180Z,101150.04
2018-12-13T14:25:44.780Z,101142.41
2018-12-13T14:28:12.250Z,101138.98
2018-12-13T14:30:39.707Z,101136.94
2018-12-13T14:33:07.177Z,101131.81
2018-12-13T14:35:34.670Z,101130.97
2018-12-13T14:38:02.198Z,101129.17
2018-12-13T14:40:29.674Z,101134.30
2018-12-13T14:42:57.159Z,101129.54
2018-12-13T14:45:24.667Z,101137.23
2018-12-13T14:47:52.160Z,101129.92
2018-12-13T14:50:19.666Z,101126.97
2018-12-13T14:52:47.131Z,101132.06
2018-12-13T14:55:14.667Z,101134.55
2018-12-13T14:57:42.177Z,101141.81
2018-12-13T15:00:09.806Z,101137.84
2018-12-13T15:02:37.324Z,101128.23
2018-12-13T15:05:04.957Z,101126.48
2018-12-13T15:07:32.416Z,101137.39
2018-12-13T15:09:59.869Z,101129.01
2018-12-13T15:12:27.341Z,101132.63
2018-12-13T15:14:54.799Z,101130.05
2018-12-13T15:17:22.257Z,101134.93
2018-12-13T15:19:49.738Z,101137.45
2018-12-13T15:22:17.213Z,101134.91
2018-12-13T15:24:44.698Z,101129.03
2018-12-13T15:27:12.161Z,101139.43
2018-12-13T15:29:39.621Z,101144.91
2018-12-13T15:32:07.210Z,101154.66
2018-12-13T15:34:34.671Z,101158.01
2018-12-13T15:37:02.176Z,101156.74
2018-12-13T15:39:29.664Z,101159.27
2018-12-13T15:41:57.172Z,101156.33
2018-12-13T15:44:24.739Z,101156.38
2018-12-13T15:46:52.239Z,101152.37
2018-12-13T15:49:20.169Z,101147.62
2018-12-13T15:51:47.665Z,101154.23
2018-12-13T15:54:15.120Z,101153.27
2018-12-13T15:56:42.582Z,101157.91
2018-12-13T15:59:10.083Z,101164.22
2018-12-13T16:01:37.613Z,101157.47
2018-12-13T16:04:05.104Z,101145.14
2018-12-13T16:06:32.583Z,101147.79
2018-12-13T16:09:00.124Z,101150.67
2018-12-13T16:11:27.633Z,101147.81
2018-12-13T16:13:55.120Z,101146.40
2018-12-13T16:16:22.656Z,101141.73
2018-12-13T16:18:50.186Z,101143.46
2018-12-13T16:21:18.033Z,101152.71
2018-12-13T16:23:45.522Z,101148.46
2018-12-13T16:26:13.319Z,101148.52
2018-12-13T16:28:40.809Z,101141.30
2018-12-13T16:31:14.353Z,101140.45
2018-12-13T16:33:41.845Z,101138.67
2018-12-13T16:36:09.367Z,101137.45
2018-12-13T16:38:37.052Z,101134.57
2018-12-13T16:41:04.571Z,101134.57
2018-12-13T16:43:33.623Z,101136.73
2018-12-13T16:46:01.796Z,101133.05
2018-12-13T16:48:29.309Z,101136.86
2018-12-13T16:50:58.475Z,101137.28
2018-12-13T16:53:26.148Z,101134.82
2018-12-13T16:55:53.648Z,101141.78
2018-12-13T16:58:21.101Z,101143.58
2018-12-13T17:00:49.807Z,101138.53
2018-12-13T17:06:23.677Z,101135.10
2018-12-13T17:08:51.228Z,101136.36
2018-12-13T17:11:18.745Z,101136.62
2018-12-13T17:13:46.252Z,101135.83
2018-12-13T17:16:13.817Z,101142.58
2018-12-13T17:18:41.290Z,101139.15
2018-12-13T17:21:12.088Z,101144.30
2018-12-13T17:23:42.577Z,101141.36
2018-12-13T17:26:10.047Z,101134.74
2018-12-13T17:28:37.632Z,101131.75
2018-12-13T17:31:05.409Z,101143.59
2018-12-13T17:33:32.922Z,101145.27
2018-12-13T17:36:00.415Z,101146.66
2018-12-13T17:38:29.507Z,101147.12
2018-12-13T17:40:57.128Z,101148.27
2018-12-13T17:43:24.658Z,101147.08
2018-12-13T17:45:55.363Z,101146.66
2018-12-13T17:48:23.445Z,101142.44
2018-12-13T17:50:50.904Z,101150.02
2018-12-13T17:53:18.639Z,101152.49
2018-12-13T17:55:46.198Z,101155.92
2018-12-13T17:58:14.876Z,101155.14
2018-12-13T18:00:42.379Z,101158.01
2018-12-13T18:03:09.934Z,101156.33
2018-12-13T18:05:37.427Z,101152.55
2018-12-13T18:08:05.017Z,101151.77
2018-12-13T18:10:32.829Z,101152.95
2018-12-13T18:13:00.487Z,101152.59
2018-12-13T18:15:28.175Z,101158.91
2018-12-13T18:17:55.913Z,101158.55
2018-12-13T18:20:24.360Z,101159.27
2018-12-13T18:22:52.062Z,101162.16
2018-12-13T18:25:19.791Z,101164.34
2018-12-13T18:27:47.298Z,101162.95
2018-12-13T18:30:14.756Z,101164.16
2018-12-13T18:32:42.217Z,101159.58
2018-12-13T18:35:09.759Z,101157.73
2018-12-13T18:37:37.294Z,101157.05
2018-12-13T18:40:05.740Z,101160.84
2018-12-13T18:42:34.308Z,101165.13
2018-12-13T18:45:02.372Z,101168.48
2018-12-13T18:47:30.586Z,101176.31
2018-12-13T18:49:58.079Z,101165.72
2018-12-13T18:52:25.692Z,101171.26
2018-12-13T18:54:53.386Z,101174.12
2018-12-13T18:57:24.235Z,101169.07
2018-12-13T18:59:51.795Z,101164.88
2018-12-13T19:02:19.257Z,101161.50
2018-12-13T19:04:46.702Z,101158.61
2018-12-13T19:07:14.339Z,101152.67
2018-12-13T19:09:45.880Z,101155.61
2018-12-13T19:12:13.377Z,101161.63
2018-12-13T19:14:40.852Z,101160.80
2018-12-13T19:17:10.696Z,101154.05
2018-12-13T19:19:38.200Z,101155.37
2018-12-13T19:22:05.689Z,101159.22
2018-12-13T19:24:33.165Z,101165.59
2018-12-13T19:27:00.688Z,101169.45
2018-12-13T19:29:28.289Z,101175.22
2018-12-13T19:31:55.839Z,101180.04
2018-12-13T19:34:23.296Z,101177.33
2018-12-13T19:36:50.770Z,101174.79
2018-12-13T19:39:18.804Z,101177.03
2018-12-13T19:41:46.252Z,101179.37
2018-12-13T19:44:14.232Z,101181.90
2018-12-13T19:46:42.050Z,101182.37
2018-12-13T19:49:09.523Z,101174.86
2018-12-13T19:51:37.099Z,101181.23
2018-12-13T19:54:04.663Z,101183.22
2018-12-13T19:56:32.222Z,101178.70
2018-12-13T19:58:59.713Z,101179.86
2018-12-13T20:01:27.211Z,101178.70
2018-12-13T20:03:54.740Z,101173.70
2018-12-13T20:06:22.226Z,101171.97
2018-12-13T20:08:49.690Z,101178.22
2018-12-13T20:11:17.144Z,101171.48
2018-12-13T20:13:44.629Z,101171.80
2018-12-13T20:16:12.531Z,101176.13
2018-12-13T20:18:40.021Z,101178.94
2018-12-13T20:21:07.456Z,101178.95
2018-12-13T20:23:35.248Z,101180.27
2018-12-13T20:26:02.718Z,101183.16
2018-12-13T20:28:30.176Z,101186.41
2018-12-13T20:30:58.107Z,101185.33
2018-12-13T20:33:25.574Z,101186.59
2018-12-13T20:35:53.117Z,101187.49
2018-12-13T20:38:20.877Z,101192.49
2018-12-13T20:40:48.333Z,101189.12
2018-12-13T20:43:15.810Z,101190.48
2018-12-13T20:45:43.267Z,101193.73
2018-12-13T20:48:10.740Z,101193.37
2018-12-13T20:50:38.316Z,101191.20
2018-12-13T20:53:05.786Z,101203.73
2018-12-13T20:55:33.244Z,101202.05
2018-12-13T20:58:00.736Z,101200.41
2018-12-13T21:00:28.199Z,101204.14
2018-12-13T21:02:55.653Z,101206.74
2018-12-13T21:05:23.131Z,101203.30
2018-12-13T21:07:52.559Z,101199.33
2018-12-13T21:10:20.035Z,101195.25
2018-12-13T21:12:47.524Z,101196.13
2018-12-13T21:15:15.555Z,101197.41
2018-12-13T21:17:43.036Z,101196.56
2018-12-13T21:20:10.504Z,101195.79
2018-12-13T21:22:37.984Z,101196.69
2018-12-13T21:25:05.629Z,101195.73
2018-12-13T21:27:33.097Z,101199.37
2018-12-13T21:30:00.598Z,101193.80
2018-12-13T21:32:28.059Z,101195.48
2018-12-13T21:34:56.052Z,101189.53
2018-12-13T21:37:23.549Z,101193.80
2018-12-13T21:39:51.014Z,101194.70
2018-12-13T21:42:18.473Z,101188.61
2018-12-13T21:44:45.946Z,101186.56
2018-12-13T21:47:13.417Z,101190.30
2018-12-13T21:49:40.956Z,101189.11
2018-12-13T21:52:08.409Z,101187.72
2018-12-13T21:54:35.891Z,101190.48
2018-12-13T21:57:03.483Z,101188.78
2018-12-13T21:59:30.985Z,101187.16
2018-12-13T22:01:58.465Z,101183.02
2018-12-13T22:04:25.953Z,101174.84
2018-12-13T22:06:53.482Z,101175.69
2018-12-13T22:09:20.994Z,101179.04
2018-12-13T22:11:48.448Z,101179.04
2018-12-13T22:14:17.836Z,101178.08
2018-12-13T22:16:45.341Z,101181.98
2018-12-13T22:19:12.817Z,101191.12
2018-12-13T22:21:40.329Z,101183.98
2018-12-13T22:24:07.781Z,101192.52
2018-12-13T22:26:35.243Z,101188.37
2018-12-13T22:29:02.745Z,101190.05
2018-12-13T22:31:30.228Z,101192.64
2018-12-13T22:33:58.844Z,101191.30
2018-12-13T22:36:26.325Z,101188.23
2018-12-13T22:38:53.780Z,101191.34
2018-12-13T22:41:26.359Z,101194.22
2018-12-13T22:43:51.289Z,101196.20
2018-12-13T22:46:18.737Z,101194.39
2018-12-13T22:48:46.193Z,101198.53
2018-12-13T22:51:13.665Z,101198.12
2018-12-13T22:53:41.152Z,101192.14
2018-12-13T22:56:09.124Z,101200.09
2018-12-13T22:58:36.596Z,101200.45
2018-12-13T23:01:04.130Z,101198.45
2018-12-13T23:03:32.097Z,101196.09
2018-12-13T23:05:59.590Z,101195.63
2018-12-13T23:08:27.045Z,101192.17
2018-12-13T23:10:55.401Z,101195.05
2018-12-13T23:13:22.885Z,101191.50
2018-12-13T23:15:50.417Z,101193.59
2018-12-13T23:18:17.895Z,101193.53
2018-12-13T23:20:45.364Z,101189.25
2018-12-13T23:23:13.709Z,101193.94
2018-12-13T23:25:41.161Z,101186.45
2018-12-13T23:28:08.651Z,101186.37
2018-12-13T23:30:36.117Z,101190.30
2018-12-13T23:33:04.254Z,101199.63
2018-12-13T23:35:31.727Z,101185.97
2018-12-13T23:37:59.233Z,101190.95
2018-12-13T23:40:27.081Z,101192.87
2018-12-13T23:42:54.601Z,101196.31
2018-12-13T23:45:22.123Z,101195.29
2018-12-13T23:47:50.186Z,101202.62
2018-12-13T23:50:17.689Z,101203.82
2018-12-13T23:52:45.153Z,101203.67
2018-12-13T23:55:12.609Z,101197.61
2018-12-13T23:57:40.273Z,101195.75
